sensor_id;sensor_type;location;lat;lon;timestamp;P1;durP1;ratioP1;P2;durP2;ratioP2
14681;SDS011;7429;52.498;13.480;2023-12-28T00:02:22;9.50;;;5.73;;
14681;SDS011;7429;52.498;13.480;2023-12-28T00:05:25;12.10;;;7.27;;
14681;SDS011;7429;52.498;13.480;2023-12-28T00:08:28;9.17;;;5.93;;
14681;SDS011;7429;52.498;13.480;2023-12-28T00:11:33;12.07;;;6.23;;
14681;SDS011;7429;52.498;13.480;2023-12-28T00:14:38;10.93;;;5.67;;
14681;SDS011;7429;52.498;13.480;2023-12-28T00:17:41;6.13;;;5.37;;
14681;SDS011;7429;52.498;13.480;2023-12-28T00:20:44;9.63;;;6.37;;
14681;SDS011;7429;52.498;13.480;2023-12-28T00:23:47;11.23;;;6.53;;
14681;SDS011;7429;52.498;13.480;2023-12-28T00:26:50;10.23;;;6.07;;
14681;SDS011;7429;52.498;13.480;2023-12-28T00:29:54;8.33;;;5.93;;
14681;SDS011;7429;52.498;13.480;2023-12-28T00:32:58;9.80;;;6.40;;
14681;SDS011;7429;52.498;13.480;2023-12-28T00:36:04;12.10;;;5.57;;
14681;SDS011;7429;52.498;13.480;2023-12-28T00:39:08;7.30;;;6.00;;
14681;SDS011;7429;52.498;13.480;2023-12-28T00:42:11;8.00;;;5.70;;
14681;SDS011;7429;52.498;13.480;2023-12-28T00:45:15;9.37;;;6.27;;
14681;SDS011;7429;52.498;13.480;2023-12-28T00:48:18;10.13;;;5.53;;
14681;SDS011;7429;52.498;13.480;2023-12-28T00:51:21;9.13;;;5.93;;
14681;SDS011;7429;52.498;13.480;2023-12-28T00:54:25;8.10;;;5.40;;
14681;SDS011;7429;52.498;13.480;2023-12-28T00:57:28;8.67;;;5.97;;
14681;SDS011;7429;52.498;13.480;2023-12-28T01:00:32;8.20;;;6.43;;
14681;SDS011;7429;52.498;13.480;2023-12-28T01:03:36;8.97;;;6.60;;
14681;SDS011;7429;52.498;13.480;2023-12-28T01:06:39;8.07;;;5.57;;
14681;SDS011;7429;52.498;13.480;2023-12-28T01:09:42;6.03;;;5.53;;
14681;SDS011;7429;52.498;13.480;2023-12-28T01:12:46;10.03;;;5.87;;
14681;SDS011;7429;52.498;13.480;2023-12-28T01:15:50;9.30;;;6.00;;
14681;SDS011;7429;52.498;13.480;2023-12-28T01:18:53;7.93;;;6.20;;
14681;SDS011;7429;52.498;13.480;2023-12-28T01:21:57;7.70;;;4.90;;
14681;SDS011;7429;52.498;13.480;2023-12-28T01:25:00;9.20;;;5.87;;
14681;SDS011;7429;52.498;13.480;2023-12-28T01:28:03;9.27;;;5.87;;
14681;SDS011;7429;52.498;13.480;2023-12-28T01:31:08;5.87;;;5.37;;
14681;SDS011;7429;52.498;13.480;2023-12-28T01:34:11;7.40;;;6.23;;
14681;SDS011;7429;52.498;13.480;2023-12-28T01:37:16;10.97;;;5.97;;
14681;SDS011;7429;52.498;13.480;2023-12-28T01:40:19;6.63;;;6.00;;
14681;SDS011;7429;52.498;13.480;2023-12-28T01:43:22;6.30;;;5.80;;
14681;SDS011;7429;52.498;13.480;2023-12-28T01:46:27;9.53;;;6.20;;
14681;SDS011;7429;52.498;13.480;2023-12-28T01:49:30;6.40;;;5.60;;
14681;SDS011;7429;52.498;13.480;2023-12-28T01:52:33;6.30;;;5.33;;
14681;SDS011;7429;52.498;13.480;2023-12-28T01:55:37;6.77;;;6.17;;
14681;SDS011;7429;52.498;13.480;2023-12-28T01:58:40;6.87;;;5.77;;
14681;SDS011;7429;52.498;13.480;2023-12-28T02:01:46;7.13;;;5.63;;
14681;SDS011;7429;52.498;13.480;2023-12-28T02:04:50;10.83;;;6.23;;
14681;SDS011;7429;52.498;13.480;2023-12-28T02:07:53;7.17;;;5.97;;
14681;SDS011;7429;52.498;13.480;2023-12-28T02:10:58;8.03;;;6.33;;
14681;SDS011;7429;52.498;13.480;2023-12-28T02:14:02;7.03;;;6.47;;
14681;SDS011;7429;52.498;13.480;2023-12-28T02:17:09;11.07;;;6.87;;
14681;SDS011;7429;52.498;13.480;2023-12-28T02:20:16;9.37;;;8.43;;
14681;SDS011;7429;52.498;13.480;2023-12-28T02:23:22;11.90;;;8.93;;
14681;SDS011;7429;52.498;13.480;2023-12-28T02:26:26;10.30;;;8.60;;
14681;SDS011;7429;52.498;13.480;2023-12-28T02:29:29;8.83;;;8.03;;
14681;SDS011;7429;52.498;13.480;2023-12-28T02:32:37;8.77;;;8.03;;
14681;SDS011;7429;52.498;13.480;2023-12-28T02:35:52;10.50;;;9.57;;
14681;SDS011;7429;52.498;13.480;2023-12-28T02:39:00;11.00;;;9.93;;
14681;SDS011;7429;52.498;13.480;2023-12-28T02:42:06;8.53;;;7.93;;
14681;SDS011;7429;52.498;13.480;2023-12-28T02:45:10;9.40;;;8.70;;
14681;SDS011;7429;52.498;13.480;2023-12-28T02:48:14;7.30;;;6.53;;
14681;SDS011;7429;52.498;13.480;2023-12-28T02:51:17;4.97;;;4.47;;
14681;SDS011;7429;52.498;13.480;2023-12-28T02:54:21;6.13;;;4.57;;
14681;SDS011;7429;52.498;13.480;2023-12-28T02:57:25;4.47;;;3.93;;
14681;SDS011;7429;52.498;13.480;2023-12-28T03:00:28;5.63;;;3.53;;
14681;SDS011;7429;52.498;13.480;2023-12-28T03:03:32;4.97;;;4.13;;
14681;SDS011;7429;52.498;13.480;2023-12-28T03:06:35;4.00;;;3.60;;
14681;SDS011;7429;52.498;13.480;2023-12-28T03:09:40;4.03;;;3.67;;
14681;SDS011;7429;52.498;13.480;2023-12-28T03:12:44;4.30;;;3.90;;
14681;SDS011;7429;52.498;13.480;2023-12-28T03:15:47;4.03;;;3.67;;
14681;SDS011;7429;52.498;13.480;2023-12-28T03:18:51;3.30;;;3.00;;
14681;SDS011;7429;52.498;13.480;2023-12-28T03:21:54;4.27;;;3.87;;
14681;SDS011;7429;52.498;13.480;2023-12-28T03:24:57;3.90;;;3.60;;
14681;SDS011;7429;52.498;13.480;2023-12-28T03:28:02;3.90;;;3.50;;
14681;SDS011;7429;52.498;13.480;2023-12-28T03:31:05;4.50;;;4.20;;
14681;SDS011;7429;52.498;13.480;2023-12-28T03:34:08;8.83;;;4.47;;
14681;SDS011;7429;52.498;13.480;2023-12-28T03:37:12;4.83;;;3.40;;
14681;SDS011;7429;52.498;13.480;2023-12-28T03:40:15;3.53;;;3.23;;
14681;SDS011;7429;52.498;13.480;2023-12-28T03:43:22;3.47;;;3.17;;
14681;SDS011;7429;52.498;13.480;2023-12-28T03:46:25;3.53;;;2.73;;
14681;SDS011;7429;52.498;13.480;2023-12-28T03:49:29;3.50;;;3.20;;
14681;SDS011;7429;52.498;13.480;2023-12-28T03:52:32;6.30;;;4.13;;
14681;SDS011;7429;52.498;13.480;2023-12-28T03:55:35;3.83;;;3.53;;
14681;SDS011;7429;52.498;13.480;2023-12-28T03:58:39;4.70;;;4.40;;
14681;SDS011;7429;52.498;13.480;2023-12-28T04:01:42;3.97;;;3.63;;
14681;SDS011;7429;52.498;13.480;2023-12-28T04:04:46;4.00;;;3.60;;
14681;SDS011;7429;52.498;13.480;2023-12-28T04:07:50;3.90;;;3.47;;
14681;SDS011;7429;52.498;13.480;2023-12-28T04:10:53;5.37;;;4.03;;
14681;SDS011;7429;52.498;13.480;2023-12-28T04:13:57;5.83;;;5.33;;
14681;SDS011;7429;52.498;13.480;2023-12-28T04:17:01;3.50;;;3.20;;
14681;SDS011;7429;52.498;13.480;2023-12-28T04:20:06;4.03;;;3.20;;
14681;SDS011;7429;52.498;13.480;2023-12-28T04:23:10;5.23;;;4.83;;
14681;SDS011;7429;52.498;13.480;2023-12-28T04:26:13;4.47;;;4.17;;
14681;SDS011;7429;52.498;13.480;2023-12-28T04:29:17;5.90;;;5.40;;
14681;SDS011;7429;52.498;13.480;2023-12-28T04:32:20;3.90;;;3.60;;
14681;SDS011;7429;52.498;13.480;2023-12-28T04:35:25;3.70;;;3.40;;
14681;SDS011;7429;52.498;13.480;2023-12-28T04:38:29;4.93;;;2.90;;
14681;SDS011;7429;52.498;13.480;2023-12-28T04:41:33;5.07;;;3.77;;
14681;SDS011;7429;52.498;13.480;2023-12-28T04:44:38;3.83;;;3.53;;
14681;SDS011;7429;52.498;13.480;2023-12-28T04:47:41;3.60;;;3.30;;
14681;SDS011;7429;52.498;13.480;2023-12-28T04:50:44;3.47;;;3.23;;
14681;SDS011;7429;52.498;13.480;2023-12-28T04:53:47;4.10;;;3.37;;
14681;SDS011;7429;52.498;13.480;2023-12-28T04:56:51;4.43;;;4.07;;
14681;SDS011;7429;52.498;13.480;2023-12-28T04:59:56;3.67;;;3.30;;
14681;SDS011;7429;52.498;13.480;2023-12-28T05:02:59;4.00;;;3.67;;
14681;SDS011;7429;52.498;13.480;2023-12-28T05:06:03;3.20;;;3.00;;
14681;SDS011;7429;52.498;13.480;2023-12-28T05:09:07;4.63;;;4.23;;
14681;SDS011;7429;52.498;13.480;2023-12-28T05:12:10;3.77;;;3.30;;
14681;SDS011;7429;52.498;13.480;2023-12-28T05:15:15;4.97;;;4.57;;
14681;SDS011;7429;52.498;13.480;2023-12-28T05:18:19;3.93;;;3.73;;
14681;SDS011;7429;52.498;13.480;2023-12-28T05:21:22;4.43;;;4.10;;
14681;SDS011;7429;52.498;13.480;2023-12-28T05:24:25;5.33;;;4.93;;
14681;SDS011;7429;52.498;13.480;2023-12-28T05:27:28;4.50;;;4.30;;
14681;SDS011;7429;52.498;13.480;2023-12-28T05:30:33;5.50;;;5.00;;
14681;SDS011;7429;52.498;13.480;2023-12-28T05:33:36;4.90;;;4.50;;
14681;SDS011;7429;52.498;13.480;2023-12-28T05:36:40;4.90;;;4.60;;
14681;SDS011;7429;52.498;13.480;2023-12-28T05:39:46;4.37;;;4.10;;
14681;SDS011;7429;52.498;13.480;2023-12-28T05:42:50;4.17;;;3.87;;
14681;SDS011;7429;52.498;13.480;2023-12-28T05:45:54;4.83;;;3.60;;
14681;SDS011;7429;52.498;13.480;2023-12-28T05:48:57;5.60;;;5.20;;
14681;SDS011;7429;52.498;13.480;2023-12-28T05:52:01;6.77;;;6.17;;
14681;SDS011;7429;52.498;13.480;2023-12-28T05:55:04;5.83;;;5.33;;
14681;SDS011;7429;52.498;13.480;2023-12-28T05:58:08;4.93;;;4.33;;
14681;SDS011;7429;52.498;13.480;2023-12-28T06:01:13;4.27;;;3.97;;
14681;SDS011;7429;52.498;13.480;2023-12-28T06:04:16;6.13;;;4.17;;
14681;SDS011;7429;52.498;13.480;2023-12-28T06:07:23;5.63;;;4.10;;
14681;SDS011;7429;52.498;13.480;2023-12-28T06:10:35;5.33;;;3.30;;
14681;SDS011;7429;52.498;13.480;2023-12-28T06:13:38;4.50;;;4.10;;
14681;SDS011;7429;52.498;13.480;2023-12-28T06:16:42;4.93;;;4.43;;
14681;SDS011;7429;52.498;13.480;2023-12-28T06:19:46;4.23;;;3.60;;
14681;SDS011;7429;52.498;13.480;2023-12-28T06:22:49;3.10;;;2.90;;
14681;SDS011;7429;52.498;13.480;2023-12-28T06:25:52;3.50;;;3.10;;
14681;SDS011;7429;52.498;13.480;2023-12-28T06:28:55;3.30;;;3.10;;
14681;SDS011;7429;52.498;13.480;2023-12-28T06:32:00;3.40;;;3.20;;
14681;SDS011;7429;52.498;13.480;2023-12-28T06:35:04;3.47;;;3.17;;
14681;SDS011;7429;52.498;13.480;2023-12-28T06:38:08;5.20;;;3.70;;
14681;SDS011;7429;52.498;13.480;2023-12-28T06:41:13;2.90;;;2.70;;
14681;SDS011;7429;52.498;13.480;2023-12-28T06:44:16;3.20;;;2.90;;
14681;SDS011;7429;52.498;13.480;2023-12-28T06:47:21;4.00;;;3.60;;
14681;SDS011;7429;52.498;13.480;2023-12-28T06:50:24;4.13;;;3.80;;
14681;SDS011;7429;52.498;13.480;2023-12-28T06:53:28;4.47;;;3.40;;
14681;SDS011;7429;52.498;13.480;2023-12-28T06:56:31;3.40;;;3.07;;
14681;SDS011;7429;52.498;13.480;2023-12-28T06:59:34;4.60;;;3.87;;
14681;SDS011;7429;52.498;13.480;2023-12-28T07:02:39;3.00;;;2.80;;
14681;SDS011;7429;52.498;13.480;2023-12-28T07:05:42;3.43;;;3.13;;
14681;SDS011;7429;52.498;13.480;2023-12-28T07:08:46;3.70;;;3.40;;
14681;SDS011;7429;52.498;13.480;2023-12-28T07:11:49;4.63;;;4.23;;
14681;SDS011;7429;52.498;13.480;2023-12-28T07:14:52;4.67;;;4.27;;
14681;SDS011;7429;52.498;13.480;2023-12-28T07:17:57;4.17;;;3.67;;
14681;SDS011;7429;52.498;13.480;2023-12-28T07:21:01;3.73;;;3.40;;
14681;SDS011;7429;52.498;13.480;2023-12-28T07:24:10;4.40;;;2.90;;
14681;SDS011;7429;52.498;13.480;2023-12-28T07:27:14;3.67;;;3.37;;
14681;SDS011;7429;52.498;13.480;2023-12-28T07:30:17;3.63;;;3.33;;
14681;SDS011;7429;52.498;13.480;2023-12-28T07:33:22;3.80;;;3.50;;
14681;SDS011;7429;52.498;13.480;2023-12-28T07:36:25;5.13;;;4.73;;
14681;SDS011;7429;52.498;13.480;2023-12-28T07:39:28;3.90;;;3.50;;
14681;SDS011;7429;52.498;13.480;2023-12-28T07:42:31;4.87;;;3.73;;
14681;SDS011;7429;52.498;13.480;2023-12-28T07:45:34;3.93;;;3.40;;
14681;SDS011;7429;52.498;13.480;2023-12-28T07:48:41;3.70;;;3.40;;
14681;SDS011;7429;52.498;13.480;2023-12-28T07:51:44;4.40;;;3.80;;
14681;SDS011;7429;52.498;13.480;2023-12-28T07:54:48;4.40;;;4.00;;
14681;SDS011;7429;52.498;13.480;2023-12-28T07:57:52;5.13;;;4.77;;
14681;SDS011;7429;52.498;13.480;2023-12-28T08:00:56;6.77;;;6.37;;
14681;SDS011;7429;52.498;13.480;2023-12-28T08:04:00;8.00;;;7.37;;
14681;SDS011;7429;52.498;13.480;2023-12-28T08:07:03;4.03;;;3.37;;
14681;SDS011;7429;52.498;13.480;2023-12-28T08:10:08;6.00;;;5.60;;
14681;SDS011;7429;52.498;13.480;2023-12-28T08:13:12;7.87;;;7.17;;
14681;SDS011;7429;52.498;13.480;2023-12-28T08:16:15;6.20;;;5.70;;
14681;SDS011;7429;52.498;13.480;2023-12-28T08:19:19;8.10;;;7.40;;
14681;SDS011;7429;52.498;13.480;2023-12-28T08:22:23;7.07;;;6.57;;
14681;SDS011;7429;52.498;13.480;2023-12-28T08:25:26;7.73;;;7.13;;
14681;SDS011;7429;52.498;13.480;2023-12-28T08:28:30;6.00;;;5.67;;
14681;SDS011;7429;52.498;13.480;2023-12-28T08:31:33;3.73;;;3.53;;
14681;SDS011;7429;52.498;13.480;2023-12-28T08:34:37;4.67;;;4.20;;
14681;SDS011;7429;52.498;13.480;2023-12-28T08:37:41;5.93;;;5.43;;
14681;SDS011;7429;52.498;13.480;2023-12-28T08:40:47;7.57;;;6.87;;
14681;SDS011;7429;52.498;13.480;2023-12-28T08:43:50;6.80;;;4.23;;
14681;SDS011;7429;52.498;13.480;2023-12-28T08:46:55;6.27;;;5.77;;
14681;SDS011;7429;52.498;13.480;2023-12-28T08:50:00;7.17;;;6.20;;
14681;SDS011;7429;52.498;13.480;2023-12-28T08:53:03;7.53;;;7.03;;
14681;SDS011;7429;52.498;13.480;2023-12-28T08:56:12;6.97;;;6.43;;
14681;SDS011;7429;52.498;13.480;2023-12-28T08:59:18;7.83;;;7.33;;
14681;SDS011;7429;52.498;13.480;2023-12-28T09:02:27;7.03;;;6.60;;
14681;SDS011;7429;52.498;13.480;2023-12-28T09:05:32;7.03;;;6.53;;
14681;SDS011;7429;52.498;13.480;2023-12-28T09:08:37;4.87;;;4.20;;
14681;SDS011;7429;52.498;13.480;2023-12-28T09:11:40;4.93;;;4.17;;
14681;SDS011;7429;52.498;13.480;2023-12-28T09:14:43;4.90;;;4.20;;
14681;SDS011;7429;52.498;13.480;2023-12-28T09:17:48;4.97;;;4.43;;
14681;SDS011;7429;52.498;13.480;2023-12-28T09:20:56;4.40;;;4.10;;
14681;SDS011;7429;52.498;13.480;2023-12-28T09:23:59;5.27;;;3.83;;
14681;SDS011;7429;52.498;13.480;2023-12-28T09:27:02;4.43;;;4.10;;
14681;SDS011;7429;52.498;13.480;2023-12-28T09:30:06;4.27;;;3.77;;
14681;SDS011;7429;52.498;13.480;2023-12-28T09:33:10;5.63;;;3.93;;
14681;SDS011;7429;52.498;13.480;2023-12-28T09:36:15;5.73;;;3.87;;
14681;SDS011;7429;52.498;13.480;2023-12-28T09:39:18;4.63;;;4.30;;
14681;SDS011;7429;52.498;13.480;2023-12-28T09:42:23;5.07;;;4.60;;
14681;SDS011;7429;52.498;13.480;2023-12-28T09:45:29;5.63;;;5.07;;
14681;SDS011;7429;52.498;13.480;2023-12-28T09:48:33;4.63;;;3.93;;
14681;SDS011;7429;52.498;13.480;2023-12-28T09:51:38;5.83;;;4.43;;
14681;SDS011;7429;52.498;13.480;2023-12-28T09:54:41;4.57;;;4.17;;
14681;SDS011;7429;52.498;13.480;2023-12-28T09:57:45;4.40;;;4.10;;
14681;SDS011;7429;52.498;13.480;2023-12-28T10:00:49;4.53;;;4.13;;
14681;SDS011;7429;52.498;13.480;2023-12-28T10:03:53;4.87;;;3.70;;
14681;SDS011;7429;52.498;13.480;2023-12-28T10:06:57;4.33;;;3.93;;
14681;SDS011;7429;52.498;13.480;2023-12-28T10:10:00;6.90;;;4.70;;
14681;SDS011;7429;52.498;13.480;2023-12-28T10:13:03;4.43;;;4.03;;
14681;SDS011;7429;52.498;13.480;2023-12-28T10:16:09;5.03;;;4.63;;
14681;SDS011;7429;52.498;13.480;2023-12-28T10:19:13;5.47;;;4.23;;
14681;SDS011;7429;52.498;13.480;2023-12-28T10:22:17;7.63;;;5.00;;
14681;SDS011;7429;52.498;13.480;2023-12-28T10:25:21;6.23;;;4.70;;
14681;SDS011;7429;52.498;13.480;2023-12-28T10:28:24;5.30;;;4.90;;
14681;SDS011;7429;52.498;13.480;2023-12-28T10:31:28;6.17;;;5.00;;
14681;SDS011;7429;52.498;13.480;2023-12-28T10:34:31;4.13;;;3.83;;
14681;SDS011;7429;52.498;13.480;2023-12-28T10:37:39;5.00;;;4.57;;
14681;SDS011;7429;52.498;13.480;2023-12-28T10:40:46;6.77;;;4.33;;
14681;SDS011;7429;52.498;13.480;2023-12-28T10:43:53;8.67;;;4.47;;
14681;SDS011;7429;52.498;13.480;2023-12-28T10:47:06;4.80;;;3.60;;
14681;SDS011;7429;52.498;13.480;2023-12-28T10:50:18;7.87;;;4.43;;
14681;SDS011;7429;52.498;13.480;2023-12-28T10:53:29;5.10;;;4.33;;
14681;SDS011;7429;52.498;13.480;2023-12-28T10:56:45;4.20;;;3.90;;
14681;SDS011;7429;52.498;13.480;2023-12-28T10:59:53;5.87;;;4.67;;
14681;SDS011;7429;52.498;13.480;2023-12-28T11:03:03;4.27;;;3.50;;
14681;SDS011;7429;52.498;13.480;2023-12-28T11:06:11;4.17;;;3.67;;
14681;SDS011;7429;52.498;13.480;2023-12-28T11:09:19;6.90;;;3.70;;
14681;SDS011;7429;52.498;13.480;2023-12-28T11:12:27;4.93;;;4.03;;
14681;SDS011;7429;52.498;13.480;2023-12-28T11:15:31;4.43;;;4.03;;
14681;SDS011;7429;52.498;13.480;2023-12-28T11:18:36;5.43;;;4.47;;
14681;SDS011;7429;52.498;13.480;2023-12-28T11:21:40;4.40;;;4.00;;
14681;SDS011;7429;52.498;13.480;2023-12-28T11:24:45;6.13;;;4.27;;
14681;SDS011;7429;52.498;13.480;2023-12-28T11:27:48;3.70;;;3.40;;
14681;SDS011;7429;52.498;13.480;2023-12-28T11:30:52;5.60;;;4.10;;
14681;SDS011;7429;52.498;13.480;2023-12-28T11:34:05;4.40;;;3.60;;
14681;SDS011;7429;52.498;13.480;2023-12-28T11:37:17;5.00;;;4.30;;
14681;SDS011;7429;52.498;13.480;2023-12-28T11:40:23;7.30;;;4.77;;
14681;SDS011;7429;52.498;13.480;2023-12-28T11:43:26;3.97;;;3.73;;
14681;SDS011;7429;52.498;13.480;2023-12-28T11:46:37;6.03;;;3.97;;
14681;SDS011;7429;52.498;13.480;2023-12-28T11:49:42;7.13;;;4.87;;
14681;SDS011;7429;52.498;13.480;2023-12-28T11:52:49;5.13;;;4.10;;
14681;SDS011;7429;52.498;13.480;2023-12-28T11:56:03;4.30;;;3.80;;
14681;SDS011;7429;52.498;13.480;2023-12-28T11:59:12;6.80;;;4.20;;
14681;SDS011;7429;52.498;13.480;2023-12-28T12:02:18;5.13;;;3.93;;
14681;SDS011;7429;52.498;13.480;2023-12-28T12:05:22;4.37;;;3.90;;
14681;SDS011;7429;52.498;13.480;2023-12-28T12:08:28;4.20;;;3.80;;
14681;SDS011;7429;52.498;13.480;2023-12-28T12:11:33;4.23;;;3.47;;
14681;SDS011;7429;52.498;13.480;2023-12-28T12:14:36;3.47;;;2.93;;
14681;SDS011;7429;52.498;13.480;2023-12-28T12:17:40;4.47;;;4.03;;
14681;SDS011;7429;52.498;13.480;2023-12-28T12:20:43;4.67;;;3.80;;
14681;SDS011;7429;52.498;13.480;2023-12-28T12:23:46;5.63;;;3.87;;
14681;SDS011;7429;52.498;13.480;2023-12-28T12:26:53;6.53;;;3.73;;
14681;SDS011;7429;52.498;13.480;2023-12-28T12:29:56;4.67;;;3.87;;
14681;SDS011;7429;52.498;13.480;2023-12-28T12:32:59;4.63;;;3.60;;
14681;SDS011;7429;52.498;13.480;2023-12-28T12:36:07;3.97;;;3.33;;
14681;SDS011;7429;52.498;13.480;2023-12-28T12:39:11;3.73;;;3.33;;
14681;SDS011;7429;52.498;13.480;2023-12-28T12:42:19;4.10;;;3.67;;
14681;SDS011;7429;52.498;13.480;2023-12-28T12:45:23;5.37;;;4.23;;
14681;SDS011;7429;52.498;13.480;2023-12-28T12:48:29;6.33;;;3.60;;
14681;SDS011;7429;52.498;13.480;2023-12-28T12:51:32;3.73;;;3.23;;
14681;SDS011;7429;52.498;13.480;2023-12-28T12:54:37;3.93;;;3.53;;
14681;SDS011;7429;52.498;13.480;2023-12-28T12:57:41;4.23;;;3.00;;
14681;SDS011;7429;52.498;13.480;2023-12-28T13:00:44;4.43;;;3.57;;
14681;SDS011;7429;52.498;13.480;2023-12-28T13:03:49;3.97;;;3.57;;
14681;SDS011;7429;52.498;13.480;2023-12-28T13:06:52;3.83;;;3.40;;
14681;SDS011;7429;52.498;13.480;2023-12-28T13:09:55;5.77;;;3.23;;
14681;SDS011;7429;52.498;13.480;2023-12-28T13:13:00;4.60;;;3.83;;
14681;SDS011;7429;52.498;13.480;2023-12-28T13:16:05;4.73;;;3.33;;
14681;SDS011;7429;52.498;13.480;2023-12-28T13:19:08;4.87;;;3.60;;
14681;SDS011;7429;52.498;13.480;2023-12-28T13:22:11;5.20;;;3.80;;
14681;SDS011;7429;52.498;13.480;2023-12-28T13:25:14;4.47;;;4.07;;
14681;SDS011;7429;52.498;13.480;2023-12-28T13:32:07;3.70;;;3.40;;
14681;SDS011;7429;52.498;13.480;2023-12-28T13:35:10;6.63;;;3.23;;
14681;SDS011;7429;52.498;13.480;2023-12-28T13:38:13;4.27;;;3.33;;
14681;SDS011;7429;52.498;13.480;2023-12-28T13:41:16;6.03;;;3.80;;
14681;SDS011;7429;52.498;13.480;2023-12-28T13:44:21;4.13;;;3.50;;
14681;SDS011;7429;52.498;13.480;2023-12-28T13:47:24;4.93;;;3.57;;
14681;SDS011;7429;52.498;13.480;2023-12-28T13:50:27;4.30;;;3.40;;
14681;SDS011;7429;52.498;13.480;2023-12-28T13:53:30;4.13;;;3.27;;
14681;SDS011;7429;52.498;13.480;2023-12-28T13:56:36;4.20;;;3.80;;
14681;SDS011;7429;52.498;13.480;2023-12-28T13:59:41;6.37;;;4.13;;
14681;SDS011;7429;52.498;13.480;2023-12-28T14:02:44;5.80;;;4.57;;
14681;SDS011;7429;52.498;13.480;2023-12-28T14:05:47;3.43;;;3.13;;
14681;SDS011;7429;52.498;13.480;2023-12-28T14:08:51;4.23;;;3.83;;
14681;SDS011;7429;52.498;13.480;2023-12-28T14:11:54;5.57;;;3.40;;
14681;SDS011;7429;52.498;13.480;2023-12-28T14:15:00;3.67;;;3.37;;
14681;SDS011;7429;52.498;13.480;2023-12-28T14:18:04;4.97;;;3.97;;
14681;SDS011;7429;52.498;13.480;2023-12-28T14:21:08;5.37;;;3.30;;
14681;SDS011;7429;52.498;13.480;2023-12-28T14:24:14;5.93;;;4.27;;
14681;SDS011;7429;52.498;13.480;2023-12-28T14:27:20;5.40;;;4.90;;
14681;SDS011;7429;52.498;13.480;2023-12-28T14:30:26;5.27;;;3.93;;
14681;SDS011;7429;52.498;13.480;2023-12-28T14:33:30;5.83;;;3.97;;
14681;SDS011;7429;52.498;13.480;2023-12-28T14:36:34;12.77;;;4.67;;
14681;SDS011;7429;52.498;13.480;2023-12-28T14:39:39;4.87;;;4.30;;
14681;SDS011;7429;52.498;13.480;2023-12-28T14:42:43;4.43;;;4.03;;
14681;SDS011;7429;52.498;13.480;2023-12-28T14:45:48;7.87;;;4.70;;
14681;SDS011;7429;52.498;13.480;2023-12-28T14:48:53;5.80;;;4.00;;
14681;SDS011;7429;52.498;13.480;2023-12-28T14:51:57;3.93;;;3.10;;
14681;SDS011;7429;52.498;13.480;2023-12-28T14:55:01;5.00;;;3.77;;
14681;SDS011;7429;52.498;13.480;2023-12-28T14:58:04;4.80;;;4.30;;
14681;SDS011;7429;52.498;13.480;2023-12-28T15:01:08;4.80;;;3.60;;
14681;SDS011;7429;52.498;13.480;2023-12-28T15:04:12;4.70;;;3.40;;
14681;SDS011;7429;52.498;13.480;2023-12-28T15:07:15;4.10;;;3.63;;
14681;SDS011;7429;52.498;13.480;2023-12-28T15:10:20;4.80;;;3.70;;
14681;SDS011;7429;52.498;13.480;2023-12-28T15:13:24;5.07;;;3.60;;
14681;SDS011;7429;52.498;13.480;2023-12-28T15:16:34;4.93;;;4.03;;
14681;SDS011;7429;52.498;13.480;2023-12-28T15:19:38;4.87;;;3.97;;
14681;SDS011;7429;52.498;13.480;2023-12-28T15:22:42;3.87;;;3.47;;
14681;SDS011;7429;52.498;13.480;2023-12-28T15:25:46;6.47;;;3.90;;
14681;SDS011;7429;52.498;13.480;2023-12-28T15:28:49;4.90;;;3.57;;
14681;SDS011;7429;52.498;13.480;2023-12-28T15:31:54;6.40;;;3.30;;
14681;SDS011;7429;52.498;13.480;2023-12-28T15:34:57;4.97;;;4.20;;
14681;SDS011;7429;52.498;13.480;2023-12-28T15:38:06;4.00;;;3.70;;
14681;SDS011;7429;52.498;13.480;2023-12-28T15:41:09;5.40;;;3.73;;
14681;SDS011;7429;52.498;13.480;2023-12-28T15:44:13;4.23;;;3.90;;
14681;SDS011;7429;52.498;13.480;2023-12-28T15:47:18;4.00;;;3.70;;
14681;SDS011;7429;52.498;13.480;2023-12-28T15:50:21;5.87;;;3.53;;
14681;SDS011;7429;52.498;13.480;2023-12-28T15:53:24;5.40;;;3.90;;
14681;SDS011;7429;52.498;13.480;2023-12-28T15:56:27;6.20;;;3.77;;
14681;SDS011;7429;52.498;13.480;2023-12-28T15:59:30;5.63;;;3.73;;
14681;SDS011;7429;52.498;13.480;2023-12-28T16:02:34;7.10;;;4.10;;
14681;SDS011;7429;52.498;13.480;2023-12-28T16:05:37;4.80;;;3.17;;
14681;SDS011;7429;52.498;13.480;2023-12-28T16:08:45;4.57;;;3.90;;
14681;SDS011;7429;52.498;13.480;2023-12-28T16:11:49;6.83;;;4.50;;
14681;SDS011;7429;52.498;13.480;2023-12-28T16:14:52;6.87;;;3.63;;
14681;SDS011;7429;52.498;13.480;2023-12-28T16:17:57;4.33;;;3.60;;
14681;SDS011;7429;52.498;13.480;2023-12-28T16:21:01;6.23;;;3.80;;
14681;SDS011;7429;52.498;13.480;2023-12-28T16:24:05;5.57;;;3.53;;
14681;SDS011;7429;52.498;13.480;2023-12-28T16:27:09;4.70;;;4.30;;
14681;SDS011;7429;52.498;13.480;2023-12-28T16:30:12;5.40;;;3.97;;
14681;SDS011;7429;52.498;13.480;2023-12-28T16:33:17;7.00;;;3.83;;
14681;SDS011;7429;52.498;13.480;2023-12-28T16:36:20;6.50;;;4.10;;
14681;SDS011;7429;52.498;13.480;2023-12-28T16:39:24;6.13;;;3.87;;
14681;SDS011;7429;52.498;13.480;2023-12-28T16:42:27;4.50;;;4.10;;
14681;SDS011;7429;52.498;13.480;2023-12-28T16:45:30;5.93;;;3.93;;
14681;SDS011;7429;52.498;13.480;2023-12-28T16:48:35;4.97;;;3.97;;
14681;SDS011;7429;52.498;13.480;2023-12-28T16:51:40;6.70;;;3.50;;
14681;SDS011;7429;52.498;13.480;2023-12-28T16:54:44;4.43;;;3.87;;
14681;SDS011;7429;52.498;13.480;2023-12-28T16:57:47;4.43;;;3.73;;
14681;SDS011;7429;52.498;13.480;2023-12-28T17:00:50;3.67;;;3.30;;
14681;SDS011;7429;52.498;13.480;2023-12-28T17:03:54;6.17;;;5.13;;
14681;SDS011;7429;52.498;13.480;2023-12-28T17:06:57;4.90;;;4.50;;
14681;SDS011;7429;52.498;13.480;2023-12-28T17:10:01;6.30;;;4.93;;
14681;SDS011;7429;52.498;13.480;2023-12-28T17:13:06;5.83;;;4.20;;
14681;SDS011;7429;52.498;13.480;2023-12-28T17:16:11;4.77;;;4.03;;
14681;SDS011;7429;52.498;13.480;2023-12-28T17:19:16;8.17;;;4.93;;
14681;SDS011;7429;52.498;13.480;2023-12-28T17:22:20;9.77;;;3.90;;
14681;SDS011;7429;52.498;13.480;2023-12-28T17:25:29;4.13;;;3.73;;
14681;SDS011;7429;52.498;13.480;2023-12-28T17:28:41;4.90;;;4.37;;
14681;SDS011;7429;52.498;13.480;2023-12-28T17:31:49;5.50;;;4.37;;
14681;SDS011;7429;52.498;13.480;2023-12-28T17:34:55;4.73;;;3.73;;
14681;SDS011;7429;52.498;13.480;2023-12-28T17:37:59;4.37;;;3.90;;
14681;SDS011;7429;52.498;13.480;2023-12-28T17:41:03;4.87;;;4.37;;
14681;SDS011;7429;52.498;13.480;2023-12-28T17:44:08;4.33;;;3.93;;
14681;SDS011;7429;52.498;13.480;2023-12-28T17:47:19;5.07;;;4.67;;
14681;SDS011;7429;52.498;13.480;2023-12-28T17:50:27;6.37;;;3.80;;
14681;SDS011;7429;52.498;13.480;2023-12-28T17:53:32;6.10;;;4.20;;
14681;SDS011;7429;52.498;13.480;2023-12-28T17:56:37;4.80;;;4.33;;
14681;SDS011;7429;52.498;13.480;2023-12-28T17:59:40;6.27;;;5.40;;
14681;SDS011;7429;52.498;13.480;2023-12-28T18:06:04;5.50;;;4.97;;
14681;SDS011;7429;52.498;13.480;2023-12-28T18:09:07;6.83;;;5.20;;
14681;SDS011;7429;52.498;13.480;2023-12-28T18:12:10;6.60;;;6.10;;
14681;SDS011;7429;52.498;13.480;2023-12-28T18:15:13;6.37;;;5.77;;
14681;SDS011;7429;52.498;13.480;2023-12-28T18:18:17;5.03;;;4.40;;
14681;SDS011;7429;52.498;13.480;2023-12-28T18:21:22;6.13;;;5.57;;
14681;SDS011;7429;52.498;13.480;2023-12-28T18:24:25;8.43;;;5.27;;
14681;SDS011;7429;52.498;13.480;2023-12-28T18:27:28;4.30;;;4.00;;
14681;SDS011;7429;52.498;13.480;2023-12-28T18:30:32;6.83;;;4.00;;
14681;SDS011;7429;52.498;13.480;2023-12-28T18:33:37;6.70;;;4.50;;
14681;SDS011;7429;52.498;13.480;2023-12-28T18:36:43;4.70;;;4.30;;
14681;SDS011;7429;52.498;13.480;2023-12-28T18:39:46;6.10;;;4.00;;